• Join FlightAware (Why Join?)
  • Login
  • US Flag 
08:44PM EDT


 

Airport Tracker/Info


-or-


 

Live Flight TrackerFlight Track Log ✈ SWA534 ✈ 26-Aug-2013 ✈ KSLC - KLAS

Flight Track Log - Related Links

Times and Time Zones

All times are in EDT time to prevent confusion due to time zone crossing. See the SWA534 flight status page for this flight to view local times or setup timezone preferences in your user account.

Time Position Orientation Groundspeed Altitude Reporting Facility
EDT Latitude Longitude Course Direction KTS MPH feet Rate Location/Type
10:57PM 40.7383 -111.9714 175° South 185 213 6,400  Level Salt Lake Center
10:58PM 40.6969 -111.9675 176° South 211 243 7,600 1,980 Climbing Salt Lake Center
10:59PM 40.6253 -111.9628 177° South 263 303 9,800 2,340 Climbing Salt Lake Center
11:00PM 40.5461 -111.9578 177° South 287 330 12,400 2,040 Climbing Salt Lake Center
11:01PM 40.4506 -111.9511 177° South 346 398 14,100 1,560 Climbing Salt Lake Center
11:02PM 40.3439 -111.9453 178° South 380 437 15,700 2,340 Climbing Salt Lake Center
11:03PM 40.2478 -111.9425 179° South 347 399 19,000 2,820 Climbing Salt Lake Center
11:04PM 40.1514 -111.9589 187° South 347 399 21,500 2,400 Climbing Salt Lake Center
11:05PM 40.0325 -111.9756 186° South 362 417 23,900 2,040 Climbing Salt Lake Center
11:06PM 39.9314 -111.9911 187° South 367 422 25,800 1,680 Climbing Salt Lake Center
11:07PM 39.8258 -112.0064 186° South 383 441 27,400 1,560 Climbing Salt Lake Center
11:08PM 39.7172 -112.0217 186° South 392 451 29,000 1,620 Climbing Salt Lake Center
11:09PM 39.6103 -112.0381 187° South 388 447 30,800 960 Climbing Salt Lake Center
11:10PM 39.5022 -112.0528 186° South 391 450 31,000 240 Climbing Salt Lake Center
11:11PM 39.3906 -112.0686 186° South 403 464 31,300 480 Climbing Salt Lake Center
11:12PM 39.2833 -112.0842 186° South 388 447 32,000 300 Climbing Salt Lake Center
11:13PM 39.1686 -112.1014 187° South 380 437 32,000  Level Salt Lake Center
11:14PM 39.0667 -112.1556 202° Southwest 399 459 32,000  Level Salt Lake Center
11:15PM 38.9706 -112.2258 210° Southwest 398 458 32,000  Level Salt Lake Center
11:16PM 38.8733 -112.2964 209° Southwest 401 461 32,000  Level Salt Lake Center
11:17PM 38.7561 -112.3817 210° Southwest 405 466 32,000  Level Salt Lake Center
11:18PM 38.6581 -112.4508 209° Southwest 403 464 32,000  Level Salt Lake Center
11:19PM 38.5600 -112.5222 210° Southwest 406 467 32,000  Level Salt Lake Center
11:20PM 38.4617 -112.5919 209° Southwest 405 466 32,000  Level Salt Lake Center
11:21PM 38.3628 -112.6617 209° Southwest 407 468 32,000  Level Salt Lake Center
11:22PM 38.2644 -112.7311 209° Southwest 406 467 32,000  Level Salt Lake Center
11:23PM 38.1656 -112.8014 209° Southwest 408 470 32,000  Level Salt Lake Center
11:24PM 38.0675 -112.8725 210° Southwest 408 470 32,000  Level Salt Lake Center
11:25PM 37.9689 -112.9419 209° Southwest 408 470 32,000  Level Salt Lake Center
11:26PM 37.8500 -113.0253 209° Southwest 410 472 32,000  Level Salt Lake Center
11:27PM 37.7542 -113.0972 211° Southwest 408 470 32,000  Level Salt Lake Center
11:28PM 37.6606 -113.1775 214° Southwest 411 473 32,000  Level Salt Lake Center
11:29PM 37.5672 -113.2564 214° Southwest 409 471 32,000  Level Salt Lake Center
11:30PM 37.4739 -113.3350 214° Southwest 407 468 32,000  Level Salt Lake Center
11:31PM 37.3806 -113.4139 214° Southwest 406 467 32,000  Level Salt Lake Center
11:32PM 37.2869 -113.4922 214° Southwest 407 468 32,000  Level Salt Lake Center
11:33PM 37.1750 -113.5864 214° Southwest 405 466 32,000  Level Salt Lake Center
11:34PM 37.0817 -113.6642 214° Southwest 404 465 32,000 -300 Level Salt Lake Center
11:35PM 36.9892 -113.7425 214° Southwest 404 465 31,500 -1,620 Descending Salt Lake Center
11:37PM 36.8939 -113.8206 213° Southwest 408 470 28,800 -2,640 Descending Salt Lake Center
11:38PM 36.8031 -113.8947 213° Southwest 398 458 26,200 -2,460 Descending Salt Lake Center
11:39PM 36.7183 -113.9633 213° Southwest 382 440 23,900 -2,280 Descending Salt Lake Center
11:40PM 36.6044 -114.0592 214° Southwest 350 403 20,700 -2,280 Descending Los Angeles Center
11:41PM 36.5461 -114.1478 231° Southwest 339 390 18,500 -2,100 Descending Los Angeles Center
11:42PM 36.5022 -114.2442 240° Southwest 331 381 16,500 -1,980 Descending Los Angeles Center
11:43PM 36.4581 -114.3394 240° Southwest 320 368 14,500 -2,100 Descending Los Angeles Center
11:44PM 36.4083 -114.4486 241° Southwest 305 351 12,200 -1,500 Descending Los Angeles Center
11:45PM 36.3400 -114.4906 206° Southwest 299 344 11,500 -1,080 Descending Los Angeles Center
11:46PM 36.2617 -114.4953 183° South 285 328 10,000 -1,200 Descending Los Angeles Center
11:47PM 36.1856 -114.5003 183° South 277 319 9,100 -840 Descending Los Angeles Center
11:48PM 36.1111 -114.5061 184° South 271 312 8,400 -540 Descending Los Angeles Center
11:49PM 36.0753 -114.5636 232° Southwest 246 283 8,000 -180 Descending Los Angeles Center
11:50PM 36.0742 -114.6503 269° West 252 290 8,000 -360 Level Los Angeles Center
11:51PM 36.0725 -114.7675 269° West 251 289 7,300 -840 Descending Los Angeles Center
11:52PM 36.0733 -114.8497 271° West 253 291 6,400 -900 Descending Los Angeles Center
11:53PM 36.0719 -114.9217 269° West 246 283 5,500 -1,200 Descending Los Angeles Center
11:54PM 36.0728 -115.0044 271° West 198 228 3,900 -1,200 Descending Los Angeles Center
11:55PM 36.0742 -115.0597 272° West 153 176 3,100 -780 Descending Los Angeles Center
11:56PM 36.0739 -115.1078 270° West 138 159 2,400 -540 Descending Los Angeles Center
11:58PM 36.0731 -115.1433 268° West 145 167 2,000 -420 Descending Los Angeles Center